createdAt,value
2022-08-19T00:02:11.560Z,101183.91
2022-08-19T00:04:41.187Z,101180.66
2022-08-19T00:07:11.322Z,101182.88
2022-08-19T00:09:38.677Z,101184.16
2022-08-19T00:12:06.742Z,101180.47
2022-08-19T00:14:33.576Z,101186.78
2022-08-19T00:17:02.006Z,101188.81
2022-08-19T00:19:29.497Z,101182.09
2022-08-19T00:21:57.504Z,101186.53
2022-08-19T00:24:24.522Z,101181.44
2022-08-19T00:26:56.110Z,101185.09
2022-08-19T00:29:24.911Z,101178.22
2022-08-19T00:31:57.367Z,101189.56
2022-08-19T00:34:24.765Z,101182.75
2022-08-19T00:36:51.845Z,101186.00
2022-08-19T00:39:19.331Z,101193.28
2022-08-19T00:41:49.759Z,101188.44
2022-08-19T00:44:22.716Z,101189.69
2022-08-19T00:46:58.554Z,101192.13
2022-08-19T00:49:33.248Z,101193.16
2022-08-19T00:52:13.091Z,101203.16
2022-08-19T00:54:43.977Z,101194.63
2022-08-19T00:57:16.127Z,101182.69
2022-08-19T00:59:56.411Z,101179.25
2022-08-19T01:02:31.134Z,101188.78
2022-08-19T01:04:58.380Z,101185.97
2022-08-19T01:07:25.728Z,101185.34
2022-08-19T01:09:53.222Z,101194.25
2022-08-19T01:12:20.356Z,101194.69
2022-08-19T01:14:48.871Z,101192.66
2022-08-19T01:17:17.164Z,101196.53
2022-08-19T01:19:47.857Z,101195.50
2022-08-19T01:22:35.987Z,101192.25
2022-08-19T01:25:03.491Z,101195.31
2022-08-19T01:27:43.720Z,101195.09
2022-08-19T01:30:16.602Z,101191.84
2022-08-19T01:32:44.803Z,101190.66
2022-08-19T01:35:19.791Z,101171.81
2022-08-19T01:37:57.317Z,101170.00
2022-08-19T01:40:28.226Z,101189.47
2022-08-19T01:42:55.543Z,101184.19
2022-08-19T01:45:25.598Z,101191.47
2022-08-19T01:48:01.952Z,101190.66
2022-08-19T01:50:31.970Z,101201.78
2022-08-19T01:53:02.390Z,101191.06
2022-08-19T01:55:36.167Z,101188.25
2022-08-19T01:58:15.620Z,101197.56
2022-08-19T02:00:43.018Z,101198.38
2022-08-19T02:03:13.122Z,101192.31
2022-08-19T02:05:43.914Z,101198.97
2022-08-19T02:08:15.129Z,101190.06
2022-08-19T02:10:47.736Z,101200.38
2022-08-19T02:13:14.869Z,101212.16
2022-08-19T02:15:42.092Z,101200.38
2022-08-19T02:18:11.607Z,101209.50
2022-08-19T02:20:40.047Z,101222.28
2022-08-19T02:23:13.365Z,101217.81
2022-08-19T02:25:42.993Z,101215.19
2022-08-19T02:28:14.505Z,101212.16
2022-08-19T02:30:43.928Z,101206.88
2022-08-19T02:33:11.783Z,101206.28
2022-08-19T02:35:43.765Z,101207.09
2022-08-19T02:38:28.982Z,101208.28
2022-08-19T02:41:01.640Z,101210.56
2022-08-19T02:43:33.833Z,101215.19
2022-08-19T02:46:03.130Z,101212.16
2022-08-19T02:48:29.976Z,101208.09
2022-08-19T02:50:56.743Z,101211.13
2022-08-19T02:53:25.915Z,101207.28
2022-08-19T02:55:52.750Z,101210.13
2022-08-19T02:58:20.438Z,101211.75
2022-08-19T03:00:50.449Z,101209.72
2022-08-19T03:03:18.244Z,101213.78
2022-08-19T03:05:49.232Z,101204.03
2022-08-19T03:08:23.035Z,101196.34
2022-08-19T03:10:49.895Z,101211.72
2022-08-19T03:13:19.086Z,101201.63
2022-08-19T03:15:48.342Z,101202.81
2022-08-19T03:18:16.080Z,101195.13
2022-08-19T03:20:56.899Z,101206.47
2022-08-19T03:23:24.845Z,101198.16
2022-08-19T03:25:58.451Z,101206.06
2022-08-19T03:28:42.346Z,101218.38
2022-08-19T03:31:41.658Z,101207.66
2022-08-19T03:34:05.509Z,101206.84
2022-08-19T03:36:34.910Z,101200.91
2022-08-19T03:39:02.266Z,101211.50
2022-08-19T03:41:34.377Z,101209.22
2022-08-19T03:44:17.646Z,101210.91
2022-08-19T03:46:48.102Z,101209.63
2022-08-19T03:49:15.179Z,101210.88
2022-08-19T03:51:43.494Z,101204.81
2022-08-19T03:54:13.823Z,101197.31
2022-08-19T03:56:43.753Z,101188.97
2022-08-19T03:59:14.399Z,101192.81
2022-08-19T04:01:42.238Z,101192.63
2022-08-19T04:04:10.016Z,101200.72
2022-08-19T04:06:39.630Z,101188.19
2022-08-19T04:09:10.414Z,101198.09
2022-08-19T04:11:46.799Z,101188.97
2022-08-19T04:14:17.219Z,101190.81
2022-08-19T04:16:45.540Z,101199.69
2022-08-19T04:19:17.549Z,101196.28
2022-08-19T04:21:47.600Z,101195.06
2022-08-19T04:24:15.230Z,101202.53
2022-08-19T04:26:42.510Z,101193.84
2022-08-19T04:29:16.025Z,101191.59
2022-08-19T04:31:45.298Z,101195.84
2022-08-19T04:34:16.086Z,101186.31
2022-08-19T04:36:45.475Z,101193.84
2022-08-19T04:39:16.620Z,101187.38
2022-08-19T04:42:03.637Z,101187.75
2022-08-19T04:44:35.830Z,101194.44
2022-08-19T04:47:11.016Z,101194.22
2022-08-19T04:49:41.371Z,101198.06
2022-08-19T04:52:09.371Z,101194.63
2022-08-19T04:54:38.806Z,101205.78
2022-08-19T04:57:11.255Z,101209.00
2022-08-19T04:59:39.724Z,101205.78
2022-08-19T05:02:08.801Z,101206.38
2022-08-19T05:04:36.777Z,101213.69
2022-08-19T05:07:03.497Z,101213.06
2022-08-19T05:09:52.578Z,101225.41
2022-08-19T05:12:21.177Z,101223.81
2022-08-19T05:14:48.962Z,101217.78
2022-08-19T05:17:37.491Z,101226.31
2022-08-19T05:20:25.042Z,101228.13
2022-08-19T05:22:51.824Z,101236.44
2022-08-19T05:25:20.995Z,101235.53
2022-08-19T05:27:50.934Z,101241.19
2022-08-19T05:30:18.818Z,101228.63
2022-08-19T05:33:01.025Z,101230.22
2022-08-19T05:35:29.127Z,101229.47
2022-08-19T05:38:04.125Z,101222.94
2022-08-19T05:40:30.970Z,101230.53
2022-08-19T05:42:57.547Z,101228.41
2022-08-19T05:45:24.214Z,101232.31
2022-08-19T05:47:50.868Z,101224.81
2022-08-19T05:50:18.514Z,101226.25
2022-08-19T05:52:54.280Z,101221.88
2022-08-19T05:55:21.328Z,101221.25
2022-08-19T05:57:49.389Z,101230.34
2022-08-19T06:00:18.664Z,101226.25
2022-08-19T06:02:48.403Z,101225.69
2022-08-19T06:05:15.630Z,101238.66
2022-08-19T06:07:42.274Z,101230.28
2022-08-19T06:10:11.760Z,101234.03
2022-08-19T06:12:39.593Z,101234.19
2022-08-19T06:15:15.325Z,101237.66
2022-08-19T06:17:45.304Z,101230.94
2022-08-19T06:20:15.942Z,101224.59
2022-08-19T06:22:44.991Z,101233.75
2022-08-19T06:25:12.653Z,101226.06
2022-08-19T06:27:58.616Z,101237.28
2022-08-19T06:30:27.656Z,101237.88
2022-08-19T06:32:54.591Z,101234.78
2022-08-19T06:35:21.483Z,101242.34
2022-08-19T06:37:48.333Z,101232.44
2022-08-19T06:40:17.850Z,101228.13
2022-08-19T06:42:54.173Z,101232.47
2022-08-19T06:45:34.960Z,101241.34
2022-08-19T06:48:03.380Z,101235.09
2022-08-19T06:50:32.790Z,101230.91
2022-08-19T06:52:59.793Z,101246.84
2022-08-19T06:55:35.061Z,101229.34
2022-08-19T06:58:05.381Z,101247.72
2022-08-19T07:00:34.822Z,101231.25
2022-08-19T07:03:04.567Z,101236.50
2022-08-19T07:05:45.415Z,101249.19
2022-08-19T07:08:12.623Z,101252.69
2022-08-19T07:10:44.854Z,101258.88
2022-08-19T07:13:12.495Z,101247.88
2022-08-19T07:15:39.797Z,101258.91
2022-08-19T07:18:06.854Z,101242.28
2022-08-19T07:20:33.786Z,101264.19
2022-08-19T07:23:01.444Z,101259.06
2022-08-19T07:25:34.084Z,101243.75
2022-08-19T07:28:01.534Z,101259.81
2022-08-19T07:30:28.630Z,101249.84
2022-08-19T07:32:57.471Z,101257.94
2022-08-19T07:35:24.748Z,101256.91
2022-08-19T07:37:51.350Z,101261.88
2022-08-19T07:40:18.106Z,101253.00
2022-08-19T07:42:45.070Z,101255.66
2022-08-19T07:45:12.794Z,101260.41
2022-08-19T07:47:49.047Z,101254.63
2022-08-19T07:50:20.781Z,101251.53
2022-08-19T07:52:50.808Z,101250.50
2022-08-19T07:55:40.625Z,101265.28
2022-08-19T07:58:15.624Z,101276.34
2022-08-19T08:00:44.349Z,101272.66
2022-08-19T08:03:12.201Z,101277.84
2022-08-19T08:06:00.706Z,101270.72
2022-08-19T08:08:48.172Z,101272.31
2022-08-19T08:11:20.713Z,101267.59
2022-08-19T08:14:00.869Z,101281.09
2022-08-19T08:16:34.655Z,101273.38
2022-08-19T08:19:01.782Z,101285.03
2022-08-19T08:21:28.961Z,101281.91
2022-08-19T08:23:56.765Z,101276.47
2022-08-19T08:26:25.952Z,101288.63
2022-08-19T08:28:53.822Z,101288.38
2022-08-19T08:31:21.641Z,101273.75
2022-08-19T08:33:51.161Z,101277.53
2022-08-19T08:36:18.380Z,101298.56
2022-08-19T08:38:49.506Z,101290.91
2022-08-19T08:41:35.889Z,101299.22
2022-08-19T08:44:07.009Z,101299.44
2022-08-19T08:46:41.056Z,101306.81
2022-08-19T08:49:26.569Z,101314.78
2022-08-19T08:52:05.277Z,101311.34
2022-08-19T08:54:40.346Z,101320.03
2022-08-19T08:57:40.682Z,101316.13
2022-08-19T09:00:15.620Z,101321.09
2022-08-19T09:02:45.223Z,101316.97
2022-08-19T09:05:25.792Z,101313.03
2022-08-19T09:08:06.876Z,101315.22
2022-08-19T09:10:44.430Z,101319.41
2022-08-19T09:13:53.219Z,101313.59
2022-08-19T09:16:27.887Z,101315.81
2022-08-19T09:18:59.875Z,101315.00
2022-08-19T09:21:33.037Z,101315.47
2022-08-19T09:24:03.418Z,101318.22
2022-08-19T09:26:47.459Z,101317.97
2022-08-19T09:29:22.594Z,101310.59
2022-08-19T09:31:52.336Z,101304.13
2022-08-19T09:34:22.149Z,101311.28
2022-08-19T09:36:55.402Z,101318.31
2022-08-19T09:39:22.613Z,101332.91
2022-08-19T09:41:50.752Z,101326.91
2022-08-19T09:44:18.212Z,101319.06
2022-08-19T09:46:47.968Z,101321.69
2022-08-19T09:49:18.368Z,101330.31
2022-08-19T09:51:50.827Z,101334.38
2022-08-19T09:54:23.408Z,101324.56
2022-08-19T09:56:51.449Z,101324.34
2022-08-19T09:59:18.202Z,101325.22
2022-08-19T10:01:45.250Z,101329.16
2022-08-19T10:04:19.655Z,101334.09
2022-08-19T10:06:53.478Z,101328.59
2022-08-19T10:09:33.659Z,101327.88
2022-08-19T10:12:02.572Z,101323.72
2022-08-19T10:14:29.861Z,101327.03
2022-08-19T10:16:57.519Z,101335.00
2022-08-19T10:19:33.427Z,101333.22
2022-08-19T10:22:04.616Z,101327.78
2022-08-19T10:24:31.915Z,101324.22
2022-08-19T10:27:00.042Z,101322.56
2022-08-19T10:29:32.693Z,101317.84
2022-08-19T10:32:09.714Z,101320.34
2022-08-19T10:34:48.354Z,101312.75
2022-08-19T10:37:23.525Z,101302.03
2022-08-19T10:39:52.083Z,101316.84
2022-08-19T10:42:19.751Z,101309.44
2022-08-19T10:44:47.759Z,101294.06
2022-08-19T10:47:25.434Z,101309.28
2022-08-19T10:50:15.855Z,101303.78
2022-08-19T10:52:49.182Z,101298.69
2022-08-19T10:55:42.916Z,101304.16
2022-08-19T10:58:15.357Z,101305.91
2022-08-19T11:00:46.688Z,101305.19
2022-08-19T11:03:13.759Z,101292.59
2022-08-19T11:05:43.670Z,101294.53
2022-08-19T11:08:22.789Z,101277.41
2022-08-19T11:11:00.327Z,101283.19
2022-08-19T11:13:29.557Z,101294.66
2022-08-19T11:16:08.208Z,101307.22
2022-08-19T11:18:41.560Z,101305.06
2022-08-19T11:21:24.793Z,101303.00
2022-08-19T11:23:56.258Z,101300.94
2022-08-19T11:26:24.170Z,101295.72
2022-08-19T11:28:54.273Z,101286.13
2022-08-19T11:31:24.818Z,101288.47
2022-08-19T11:33:58.401Z,101298.59
2022-08-19T11:36:25.213Z,101288.25
2022-08-19T11:38:52.317Z,101290.94
2022-08-19T11:41:24.503Z,101286.78
2022-08-19T11:43:55.115Z,101287.84
2022-08-19T11:46:24.866Z,101278.25
2022-08-19T11:48:52.131Z,101276.97
2022-08-19T11:51:25.702Z,101278.56
2022-08-19T11:53:53.954Z,101285.25
2022-08-19T11:56:22.404Z,101283.13
2022-08-19T11:58:53.541Z,101284.19
2022-08-19T12:01:23.485Z,101284.47
2022-08-19T12:03:55.778Z,101284.19
2022-08-19T12:06:31.030Z,101285.28
2022-08-19T12:08:59.572Z,101281.19
2022-08-19T12:11:28.737Z,101278.97
2022-08-19T12:13:58.077Z,101286.53
2022-08-19T12:16:29.025Z,101287.19
2022-08-19T12:19:04.612Z,101294.31
2022-08-19T12:21:34.167Z,101274.06
2022-08-19T12:24:05.068Z,101280.69
2022-08-19T12:26:32.503Z,101278.84
2022-08-19T12:29:00.734Z,101277.91
2022-08-19T12:31:29.843Z,101279.53
2022-08-19T12:33:57.286Z,101277.16
2022-08-19T12:36:26.037Z,101280.06
2022-08-19T12:38:56.010Z,101288.28
2022-08-19T12:41:26.123Z,101277.88
2022-08-19T12:43:53.433Z,101284.78
2022-08-19T12:46:22.253Z,101276.81
2022-08-19T12:48:55.323Z,101275.06
2022-08-19T12:51:22.985Z,101280.53
2022-08-19T12:53:50.819Z,101267.34
2022-08-19T12:56:22.304Z,101265.47
2022-08-19T12:58:52.877Z,101270.75
2022-08-19T13:01:23.035Z,101270.41
2022-08-19T13:04:01.342Z,101262.06
2022-08-19T13:06:32.053Z,101280.16
2022-08-19T13:08:59.782Z,101261.59
2022-08-19T13:11:26.870Z,101271.66
2022-08-19T13:13:55.949Z,101275.28
2022-08-19T13:16:23.023Z,101276.81
2022-08-19T13:18:52.808Z,101266.91
2022-08-19T13:21:22.623Z,101269.69
2022-08-19T13:23:50.453Z,101263.78
2022-08-19T13:26:18.658Z,101266.47
2022-08-19T13:29:04.483Z,101254.72
2022-08-19T13:31:52.709Z,101260.06
2022-08-19T13:34:26.605Z,101260.06
2022-08-19T13:36:58.302Z,101244.00
2022-08-19T13:39:25.067Z,101253.03
2022-08-19T13:41:52.520Z,101247.25
2022-08-19T13:44:19.854Z,101245.16
2022-08-19T13:46:53.903Z,101245.66
2022-08-19T13:49:21.426Z,101239.19
2022-08-19T13:51:48.292Z,101246.72
2022-08-19T13:54:15.216Z,101240.31
2022-08-19T13:56:46.926Z,101242.97
2022-08-19T13:59:14.499Z,101234.16
2022-08-19T14:01:42.393Z,101230.16
2022-08-19T14:04:09.829Z,101224.00
2022-08-19T14:06:36.850Z,101227.38
2022-08-19T14:09:03.848Z,101220.66
2022-08-19T14:11:30.901Z,101214.25
2022-08-19T14:13:57.558Z,101221.78
2022-08-19T14:16:24.284Z,101217.28
2022-08-19T14:18:51.031Z,101218.84
2022-08-19T14:21:21.998Z,101213.47
2022-08-19T14:23:49.005Z,101209.25
2022-08-19T14:26:18.426Z,101204.56
2022-08-19T14:28:46.501Z,101210.63
2022-08-19T14:31:17.557Z,101209.44
2022-08-19T14:33:44.307Z,101201.19
2022-08-19T14:36:11.173Z,101200.38
2022-08-19T14:38:38.021Z,101190.69
2022-08-19T14:41:10.586Z,101189.88
2022-08-19T14:43:37.559Z,101203.81
2022-08-19T14:46:06.139Z,101200.38
2022-08-19T14:48:42.596Z,101198.59
2022-08-19T14:51:10.727Z,101208.25
2022-08-19T14:53:38.017Z,101208.25
2022-08-19T14:56:20.382Z,101203.59
2022-08-19T14:58:47.647Z,101212.53
2022-08-19T15:01:15.050Z,101225.53
2022-08-19T15:03:44.267Z,101230.25
2022-08-19T15:06:12.692Z,101231.53
2022-08-19T15:08:42.033Z,101229.41
2022-08-19T15:11:10.896Z,101223.25
2022-08-19T15:13:38.897Z,101220.59
2022-08-19T15:16:06.153Z,101217.56
2022-08-19T15:18:46.633Z,101224.13
2022-08-19T15:21:26.794Z,101220.66
2022-08-19T15:23:56.575Z,101214.84
2022-08-19T15:26:23.836Z,101235.25
2022-08-19T15:28:51.126Z,101218.41
2022-08-19T15:31:28.328Z,101232.22
2022-08-19T15:33:59.055Z,101230.31
2022-08-19T15:36:27.151Z,101228.50
2022-08-19T15:38:54.137Z,101236.97
2022-08-19T15:41:28.995Z,101240.19
2022-08-19T15:43:59.523Z,101247.69
2022-08-19T15:46:29.229Z,101241.34
2022-08-19T15:48:57.553Z,101231.59
2022-08-19T15:51:30.368Z,101237.16
2022-08-19T15:53:58.383Z,101239.00
2022-08-19T15:56:27.471Z,101236.00
2022-08-19T15:59:13.215Z,101230.47
2022-08-19T16:01:58.629Z,101235.72
2022-08-19T16:04:44.141Z,101232.31
2022-08-19T16:07:12.701Z,101232.50
2022-08-19T16:09:39.535Z,101236.38
2022-08-19T16:12:06.827Z,101241.78
2022-08-19T16:14:35.723Z,101247.97
2022-08-19T16:17:03.209Z,101262.69
2022-08-19T16:19:31.030Z,101266.81
2022-08-19T16:21:57.864Z,101278.69
2022-08-19T16:24:27.473Z,101277.94
2022-08-19T16:26:55.562Z,101282.50
2022-08-19T16:29:34.887Z,101279.16
2022-08-19T16:32:10.309Z,101279.84
2022-08-19T16:34:38.940Z,101284.44
2022-08-19T16:37:05.720Z,101280.53
2022-08-19T16:39:32.780Z,101280.06
2022-08-19T16:41:59.747Z,101285.06
2022-08-19T16:44:27.455Z,101284.81
2022-08-19T16:46:58.730Z,101280.44
2022-08-19T16:49:53.158Z,101279.50
2022-08-19T16:52:16.492Z,101282.41
2022-08-19T16:54:43.597Z,101281.13
2022-08-19T16:57:12.027Z,101277.97
2022-08-19T16:59:43.683Z,101274.97
2022-08-19T17:02:22.490Z,101275.16
2022-08-19T17:04:58.569Z,101272.16
2022-08-19T17:07:27.812Z,101266.88
2022-08-19T17:09:55.452Z,101264.59
2022-08-19T17:12:31.549Z,101270.25
2022-08-19T17:15:00.763Z,101265.31
2022-08-19T17:17:29.410Z,101272.09
2022-08-19T17:20:00.666Z,101270.38
2022-08-19T17:22:28.962Z,101267.28
2022-08-19T17:24:58.243Z,101269.38
2022-08-19T17:27:26.968Z,101273.84
2022-08-19T17:29:59.973Z,101275.34
2022-08-19T17:32:27.287Z,101273.97
2022-08-19T17:34:54.376Z,101279.50
2022-08-19T17:37:21.369Z,101272.72
2022-08-19T17:39:48.340Z,101265.47
2022-08-19T17:42:16.595Z,101278.69
2022-08-19T17:44:50.451Z,101278.44
2022-08-19T17:47:19.594Z,101275.19
2022-08-19T17:49:46.672Z,101275.78
2022-08-19T17:52:13.568Z,101272.66
2022-08-19T17:54:46.702Z,101278.31
2022-08-19T17:57:14.145Z,101273.13
2022-08-19T17:59:40.891Z,101274.66
2022-08-19T18:02:10.363Z,101279.81
2022-08-19T18:04:38.479Z,101272.22
2022-08-19T18:07:06.326Z,101275.31
2022-08-19T18:09:42.276Z,101285.22
2022-08-19T18:12:15.632Z,101286.13
2022-08-19T18:14:43.004Z,101291.28
2022-08-19T18:17:13.454Z,101291.53
2022-08-19T18:19:43.741Z,101294.84
2022-08-19T18:22:23.543Z,101300.38
2022-08-19T18:24:51.006Z,101297.03
2022-08-19T18:27:17.950Z,101311.53
2022-08-19T18:29:45.554Z,101320.25
2022-08-19T18:32:12.940Z,101322.34
2022-08-19T18:34:42.454Z,101319.09
2022-08-19T18:37:10.108Z,101325.28
2022-08-19T18:39:55.848Z,101319.28
2022-08-19T18:42:41.669Z,101332.22
2022-08-19T18:45:28.603Z,101330.34
2022-08-19T18:48:26.438Z,101335.88
2022-08-19T18:50:59.553Z,101351.66
2022-08-19T18:53:28.947Z,101343.81
2022-08-19T18:55:56.356Z,101345.91
2022-08-19T18:58:33.843Z,101344.13
2022-08-19T19:01:14.101Z,101341.63
2022-08-19T19:03:53.436Z,101347.59
2022-08-19T19:06:25.981Z,101349.50
2022-08-19T19:08:54.932Z,101350.19
2022-08-19T19:11:26.059Z,101353.78
2022-08-19T19:13:55.291Z,101350.69
2022-08-19T19:16:24.659Z,101349.72
2022-08-19T19:18:52.825Z,101351.34
2022-08-19T19:21:22.956Z,101350.44
2022-08-19T19:23:50.810Z,101350.44
2022-08-19T19:26:17.726Z,101349.56
2022-08-19T19:28:45.875Z,101348.31
2022-08-19T19:31:25.418Z,101352.00
2022-08-19T19:33:54.223Z,101360.63
2022-08-19T19:36:21.067Z,101363.03
2022-08-19T19:38:49.030Z,101356.81
2022-08-19T19:41:23.391Z,101362.09
2022-08-19T19:44:10.107Z,101367.16
2022-08-19T19:46:39.968Z,101369.59
2022-08-19T19:49:06.752Z,101372.84
2022-08-19T19:51:37.612Z,101361.09
2022-08-19T19:54:05.750Z,101364.34
2022-08-19T19:56:32.716Z,101361.47
2022-08-19T19:58:59.687Z,101365.38
2022-08-19T20:01:27.180Z,101371.66
2022-08-19T20:03:54.675Z,101367.81
2022-08-19T20:06:21.379Z,101373.50
2022-08-19T20:09:07.225Z,101373.09
2022-08-19T20:11:41.709Z,101376.38
2022-08-19T20:14:44.100Z,101375.53
2022-08-19T20:17:11.530Z,101371.06
2022-08-19T20:19:38.132Z,101377.22
2022-08-19T20:22:06.581Z,101381.94
2022-08-19T20:24:36.328Z,101381.50
2022-08-19T20:27:04.833Z,101387.88
2022-08-19T20:29:37.875Z,101382.66
2022-08-19T20:32:06.909Z,101376.22
2022-08-19T20:34:33.869Z,101376.28
2022-08-19T20:37:00.614Z,101375.34
2022-08-19T20:39:27.305Z,101380.03
2022-08-19T20:41:56.255Z,101377.59
2022-08-19T20:44:25.402Z,101374.00
2022-08-19T20:46:55.261Z,101380.75
2022-08-19T20:49:27.453Z,101371.84
2022-08-19T20:51:55.934Z,101372.06
2022-08-19T20:54:25.402Z,101371.47
2022-08-19T20:56:52.913Z,101364.41
2022-08-19T20:59:20.802Z,101372.56
2022-08-19T21:01:48.500Z,101361.63
2022-08-19T21:04:15.488Z,101368.09
2022-08-19T21:06:45.314Z,101369.31
2022-08-19T21:09:12.435Z,101368.31
2022-08-19T21:11:39.272Z,101369.16
2022-08-19T21:14:06.145Z,101370.06
2022-08-19T21:16:33.873Z,101355.44
2022-08-19T21:19:02.888Z,101358.94
2022-08-19T21:21:29.671Z,101353.44
2022-08-19T21:23:57.211Z,101362.16
2022-08-19T21:26:24.388Z,101368.03
2022-08-19T21:28:51.111Z,101365.72
2022-08-19T21:31:18.034Z,101371.44
2022-08-19T21:33:45.201Z,101372.88
2022-08-19T21:36:12.040Z,101376.94
2022-08-19T21:38:38.765Z,101382.22
2022-08-19T21:41:06.562Z,101384.06
2022-08-19T21:43:37.491Z,101387.91
2022-08-19T21:46:04.747Z,101372.69
2022-08-19T21:48:31.538Z,101377.59
2022-08-19T21:51:01.261Z,101378.78
2022-08-19T21:53:31.748Z,101391.00
2022-08-19T21:56:01.334Z,101390.31
2022-08-19T21:58:30.640Z,101385.69
2022-08-19T22:01:01.756Z,101400.69
2022-08-19T22:03:29.118Z,101391.28
2022-08-19T22:05:55.948Z,101393.50
2022-08-19T22:08:22.667Z,101390.88
2022-08-19T22:10:49.866Z,101380.44
2022-08-19T22:13:18.265Z,101385.75
2022-08-19T22:15:51.975Z,101384.91
2022-08-19T22:18:19.020Z,101384.91
2022-08-19T22:20:45.885Z,101388.75
2022-08-19T22:23:23.412Z,101389.19
2022-08-19T22:26:01.312Z,101382.25
2022-08-19T22:28:30.750Z,101383.66
2022-08-19T22:30:59.639Z,101378.81
2022-08-19T22:33:29.887Z,101381.31
2022-08-19T22:35:59.621Z,101381.00
2022-08-19T22:38:26.692Z,101384.47
2022-08-19T22:40:56.462Z,101397.06
2022-08-19T22:43:31.963Z,101395.09
2022-08-19T22:46:02.348Z,101403.59
2022-08-19T22:48:32.764Z,101388.47
2022-08-19T22:51:26.645Z,101394.31
2022-08-19T22:53:56.483Z,101392.72
2022-08-19T22:56:23.405Z,101384.66
2022-08-19T22:58:50.792Z,101387.53
2022-08-19T23:01:27.579Z,101383.50
2022-08-19T23:04:00.450Z,101379.44
2022-08-19T23:06:33.988Z,101389.22
2022-08-19T23:09:07.653Z,101395.28
2022-08-19T23:11:42.147Z,101377.09
2022-08-19T23:14:11.095Z,101390.50
2022-08-19T23:16:38.172Z,101389.47
2022-08-19T23:19:07.251Z,101386.41
2022-08-19T23:21:36.222Z,101383.16
2022-08-19T23:24:03.427Z,101385.97
2022-08-19T23:26:35.872Z,101391.25
2022-08-19T23:29:22.828Z,101390.06
2022-08-19T23:31:49.859Z,101378.69
2022-08-19T23:34:16.645Z,101376.66
2022-08-19T23:36:46.591Z,101376.66
2022-08-19T23:39:13.487Z,101380.34
2022-08-19T23:41:52.092Z,101375.06
2022-08-19T23:44:18.885Z,101367.16
2022-08-19T23:46:55.760Z,101389.66
2022-08-19T23:49:26.239Z,101379.91
2022-08-19T23:51:56.377Z,101377.28
2022-08-19T23:54:27.448Z,101389.03
2022-08-19T23:57:13.298Z,101383.97
2022-08-19T23:59:42.471Z,101374.63
